sensor_id;sensor_type;location;lat;lon;timestamp;P1;durP1;ratioP1;P2;durP2;ratioP2
13485;SDS011;6815;59.336;17.998;2024-01-30T00:01:09;23.43;;;10.40;;
13485;SDS011;6815;59.336;17.998;2024-01-30T00:03:35;20.03;;;10.33;;
13485;SDS011;6815;59.336;17.998;2024-01-30T00:06:00;22.13;;;11.13;;
13485;SDS011;6815;59.336;17.998;2024-01-30T00:08:28;20.17;;;9.93;;
13485;SDS011;6815;59.336;17.998;2024-01-30T00:10:54;19.87;;;10.90;;
13485;SDS011;6815;59.336;17.998;2024-01-30T00:13:20;19.83;;;9.60;;
13485;SDS011;6815;59.336;17.998;2024-01-30T00:15:45;20.77;;;10.30;;
13485;SDS011;6815;59.336;17.998;2024-01-30T00:18:11;19.10;;;10.17;;
13485;SDS011;6815;59.336;17.998;2024-01-30T00:20:36;21.73;;;10.83;;
13485;SDS011;6815;59.336;17.998;2024-01-30T00:23:02;19.47;;;10.83;;
13485;SDS011;6815;59.336;17.998;2024-01-30T00:25:28;24.70;;;10.97;;
13485;SDS011;6815;59.336;17.998;2024-01-30T00:27:53;18.50;;;9.87;;
13485;SDS011;6815;59.336;17.998;2024-01-30T00:30:19;22.00;;;10.90;;
13485;SDS011;6815;59.336;17.998;2024-01-30T00:32:46;23.20;;;11.23;;
13485;SDS011;6815;59.336;17.998;2024-01-30T00:35:11;25.03;;;11.13;;
13485;SDS011;6815;59.336;17.998;2024-01-30T00:37:36;18.27;;;10.13;;
13485;SDS011;6815;59.336;17.998;2024-01-30T00:40:02;26.23;;;10.33;;
13485;SDS011;6815;59.336;17.998;2024-01-30T00:42:28;26.00;;;12.27;;
13485;SDS011;6815;59.336;17.998;2024-01-30T00:44:54;26.03;;;12.27;;
13485;SDS011;6815;59.336;17.998;2024-01-30T00:47:19;24.23;;;11.03;;
13485;SDS011;6815;59.336;17.998;2024-01-30T00:49:45;29.83;;;11.50;;
13485;SDS011;6815;59.336;17.998;2024-01-30T00:52:11;29.37;;;11.13;;
13485;SDS011;6815;59.336;17.998;2024-01-30T00:54:36;21.97;;;10.77;;
13485;SDS011;6815;59.336;17.998;2024-01-30T00:57:02;23.60;;;11.00;;
13485;SDS011;6815;59.336;17.998;2024-01-30T00:59:28;22.43;;;10.60;;
13485;SDS011;6815;59.336;17.998;2024-01-30T01:01:54;23.60;;;11.20;;
13485;SDS011;6815;59.336;17.998;2024-01-30T01:04:19;28.73;;;11.07;;
13485;SDS011;6815;59.336;17.998;2024-01-30T01:06:46;21.47;;;10.77;;
13485;SDS011;6815;59.336;17.998;2024-01-30T01:09:12;20.03;;;9.73;;
13485;SDS011;6815;59.336;17.998;2024-01-30T01:11:38;21.17;;;10.07;;
13485;SDS011;6815;59.336;17.998;2024-01-30T01:14:04;24.73;;;10.83;;
13485;SDS011;6815;59.336;17.998;2024-01-30T01:16:30;26.23;;;10.43;;
13485;SDS011;6815;59.336;17.998;2024-01-30T01:18:55;19.10;;;10.53;;
13485;SDS011;6815;59.336;17.998;2024-01-30T01:21:21;25.53;;;10.70;;
13485;SDS011;6815;59.336;17.998;2024-01-30T01:23:46;25.53;;;11.47;;
13485;SDS011;6815;59.336;17.998;2024-01-30T01:26:12;20.10;;;9.80;;
13485;SDS011;6815;59.336;17.998;2024-01-30T01:28:39;21.40;;;10.60;;
13485;SDS011;6815;59.336;17.998;2024-01-30T01:31:06;19.97;;;10.03;;
13485;SDS011;6815;59.336;17.998;2024-01-30T01:33:31;21.33;;;10.13;;
13485;SDS011;6815;59.336;17.998;2024-01-30T01:35:58;21.50;;;9.13;;
13485;SDS011;6815;59.336;17.998;2024-01-30T01:38:24;21.87;;;9.67;;
13485;SDS011;6815;59.336;17.998;2024-01-30T01:40:49;20.67;;;9.13;;
13485;SDS011;6815;59.336;17.998;2024-01-30T01:43:16;18.07;;;9.47;;
13485;SDS011;6815;59.336;17.998;2024-01-30T01:45:41;21.57;;;9.73;;
13485;SDS011;6815;59.336;17.998;2024-01-30T01:48:07;20.90;;;9.83;;
13485;SDS011;6815;59.336;17.998;2024-01-30T01:50:34;16.93;;;9.00;;
13485;SDS011;6815;59.336;17.998;2024-01-30T01:53:01;17.43;;;9.80;;
13485;SDS011;6815;59.336;17.998;2024-01-30T01:55:27;24.63;;;11.33;;
13485;SDS011;6815;59.336;17.998;2024-01-30T01:57:55;17.63;;;9.47;;
13485;SDS011;6815;59.336;17.998;2024-01-30T02:00:21;23.43;;;10.30;;
13485;SDS011;6815;59.336;17.998;2024-01-30T02:02:46;28.23;;;10.77;;
13485;SDS011;6815;59.336;17.998;2024-01-30T02:05:12;34.70;;;11.93;;
13485;SDS011;6815;59.336;17.998;2024-01-30T02:07:39;32.63;;;12.13;;
13485;SDS011;6815;59.336;17.998;2024-01-30T02:10:05;38.93;;;13.23;;
13485;SDS011;6815;59.336;17.998;2024-01-30T02:12:32;39.90;;;13.50;;
13485;SDS011;6815;59.336;17.998;2024-01-30T02:14:58;39.87;;;12.50;;
13485;SDS011;6815;59.336;17.998;2024-01-30T02:17:23;38.43;;;13.63;;
13485;SDS011;6815;59.336;17.998;2024-01-30T02:19:49;40.73;;;13.57;;
13485;SDS011;6815;59.336;17.998;2024-01-30T02:22:14;42.73;;;14.40;;
13485;SDS011;6815;59.336;17.998;2024-01-30T02:24:40;36.47;;;13.33;;
13485;SDS011;6815;59.336;17.998;2024-01-30T02:27:05;31.63;;;13.17;;
13485;SDS011;6815;59.336;17.998;2024-01-30T02:29:31;46.37;;;13.93;;
13485;SDS011;6815;59.336;17.998;2024-01-30T02:31:56;39.63;;;15.00;;
13485;SDS011;6815;59.336;17.998;2024-01-30T02:34:23;36.73;;;13.87;;
13485;SDS011;6815;59.336;17.998;2024-01-30T02:36:48;35.53;;;13.53;;
13485;SDS011;6815;59.336;17.998;2024-01-30T02:39:14;36.93;;;13.47;;
13485;SDS011;6815;59.336;17.998;2024-01-30T02:41:39;39.27;;;13.80;;
13485;SDS011;6815;59.336;17.998;2024-01-30T02:44:05;38.33;;;14.40;;
13485;SDS011;6815;59.336;17.998;2024-01-30T02:46:30;34.67;;;13.77;;
13485;SDS011;6815;59.336;17.998;2024-01-30T02:48:56;31.70;;;12.63;;
13485;SDS011;6815;59.336;17.998;2024-01-30T02:51:22;38.23;;;13.20;;
13485;SDS011;6815;59.336;17.998;2024-01-30T02:53:47;27.70;;;12.10;;
13485;SDS011;6815;59.336;17.998;2024-01-30T02:56:13;33.10;;;13.07;;
13485;SDS011;6815;59.336;17.998;2024-01-30T02:58:39;28.60;;;13.27;;
13485;SDS011;6815;59.336;17.998;2024-01-30T03:01:05;27.23;;;12.67;;
13485;SDS011;6815;59.336;17.998;2024-01-30T03:03:31;34.47;;;12.93;;
13485;SDS011;6815;59.336;17.998;2024-01-30T03:05:57;26.30;;;12.07;;
13485;SDS011;6815;59.336;17.998;2024-01-30T03:08:22;28.70;;;12.00;;
13485;SDS011;6815;59.336;17.998;2024-01-30T03:10:48;24.40;;;11.13;;
13485;SDS011;6815;59.336;17.998;2024-01-30T03:13:13;26.53;;;12.50;;
13485;SDS011;6815;59.336;17.998;2024-01-30T03:15:39;27.30;;;11.27;;
13485;SDS011;6815;59.336;17.998;2024-01-30T03:18:04;23.30;;;11.47;;
13485;SDS011;6815;59.336;17.998;2024-01-30T03:20:30;25.93;;;11.33;;
13485;SDS011;6815;59.336;17.998;2024-01-30T03:22:56;29.40;;;12.27;;
13485;SDS011;6815;59.336;17.998;2024-01-30T03:25:22;27.67;;;11.70;;
13485;SDS011;6815;59.336;17.998;2024-01-30T03:27:48;24.73;;;11.63;;
13485;SDS011;6815;59.336;17.998;2024-01-30T03:30:14;22.03;;;10.67;;
13485;SDS011;6815;59.336;17.998;2024-01-30T03:32:39;22.80;;;10.27;;
13485;SDS011;6815;59.336;17.998;2024-01-30T03:35:05;22.17;;;11.10;;
13485;SDS011;6815;59.336;17.998;2024-01-30T03:37:30;24.33;;;9.80;;
13485;SDS011;6815;59.336;17.998;2024-01-30T03:39:56;27.10;;;10.43;;
13485;SDS011;6815;59.336;17.998;2024-01-30T03:42:22;17.57;;;9.33;;
13485;SDS011;6815;59.336;17.998;2024-01-30T03:44:47;19.93;;;9.30;;
13485;SDS011;6815;59.336;17.998;2024-01-30T03:47:13;17.20;;;8.87;;
13485;SDS011;6815;59.336;17.998;2024-01-30T03:49:39;16.40;;;8.00;;
13485;SDS011;6815;59.336;17.998;2024-01-30T03:52:05;16.73;;;7.90;;
13485;SDS011;6815;59.336;17.998;2024-01-30T03:54:30;16.63;;;8.20;;
13485;SDS011;6815;59.336;17.998;2024-01-30T03:56:56;13.67;;;8.00;;
13485;SDS011;6815;59.336;17.998;2024-01-30T03:59:21;18.73;;;9.13;;
13485;SDS011;6815;59.336;17.998;2024-01-30T04:01:49;15.97;;;8.40;;
13485;SDS011;6815;59.336;17.998;2024-01-30T04:04:18;15.80;;;7.60;;
13485;SDS011;6815;59.336;17.998;2024-01-30T04:06:44;14.90;;;8.40;;
13485;SDS011;6815;59.336;17.998;2024-01-30T04:09:10;16.33;;;8.33;;
13485;SDS011;6815;59.336;17.998;2024-01-30T04:11:38;13.47;;;7.67;;
13485;SDS011;6815;59.336;17.998;2024-01-30T04:14:03;19.50;;;8.57;;
13485;SDS011;6815;59.336;17.998;2024-01-30T04:16:29;13.03;;;8.13;;
13485;SDS011;6815;59.336;17.998;2024-01-30T04:18:54;13.90;;;7.70;;
13485;SDS011;6815;59.336;17.998;2024-01-30T04:21:23;15.40;;;8.17;;
13485;SDS011;6815;59.336;17.998;2024-01-30T04:23:48;13.50;;;7.03;;
13485;SDS011;6815;59.336;17.998;2024-01-30T04:26:15;12.97;;;7.47;;
13485;SDS011;6815;59.336;17.998;2024-01-30T04:28:41;12.47;;;7.57;;
13485;SDS011;6815;59.336;17.998;2024-01-30T04:31:07;12.00;;;7.07;;
13485;SDS011;6815;59.336;17.998;2024-01-30T04:33:33;14.80;;;7.30;;
13485;SDS011;6815;59.336;17.998;2024-01-30T04:35:59;15.13;;;7.37;;
13485;SDS011;6815;59.336;17.998;2024-01-30T04:38:24;14.23;;;7.97;;
13485;SDS011;6815;59.336;17.998;2024-01-30T04:40:50;14.07;;;7.70;;
13485;SDS011;6815;59.336;17.998;2024-01-30T04:43:15;18.57;;;8.90;;
13485;SDS011;6815;59.336;17.998;2024-01-30T04:45:41;15.13;;;7.40;;
13485;SDS011;6815;59.336;17.998;2024-01-30T04:48:07;16.23;;;7.30;;
13485;SDS011;6815;59.336;17.998;2024-01-30T04:50:32;12.67;;;7.77;;
13485;SDS011;6815;59.336;17.998;2024-01-30T04:52:58;17.07;;;7.87;;
13485;SDS011;6815;59.336;17.998;2024-01-30T04:55:24;17.17;;;8.33;;
13485;SDS011;6815;59.336;17.998;2024-01-30T04:57:49;14.13;;;8.10;;
13485;SDS011;6815;59.336;17.998;2024-01-30T05:00:15;15.47;;;8.20;;
13485;SDS011;6815;59.336;17.998;2024-01-30T05:02:40;15.20;;;8.97;;
13485;SDS011;6815;59.336;17.998;2024-01-30T05:05:06;16.87;;;9.57;;
13485;SDS011;6815;59.336;17.998;2024-01-30T05:07:31;18.30;;;9.87;;
13485;SDS011;6815;59.336;17.998;2024-01-30T05:09:57;20.33;;;10.63;;
13485;SDS011;6815;59.336;17.998;2024-01-30T05:12:22;17.30;;;10.03;;
13485;SDS011;6815;59.336;17.998;2024-01-30T05:14:48;19.87;;;10.10;;
13485;SDS011;6815;59.336;17.998;2024-01-30T05:17:13;22.40;;;10.43;;
13485;SDS011;6815;59.336;17.998;2024-01-30T05:19:39;20.23;;;10.33;;
13485;SDS011;6815;59.336;17.998;2024-01-30T05:22:04;18.83;;;9.70;;
13485;SDS011;6815;59.336;17.998;2024-01-30T05:24:30;18.33;;;9.80;;
13485;SDS011;6815;59.336;17.998;2024-01-30T05:26:55;16.13;;;8.97;;
13485;SDS011;6815;59.336;17.998;2024-01-30T05:29:21;15.80;;;9.83;;
13485;SDS011;6815;59.336;17.998;2024-01-30T05:31:47;19.13;;;10.57;;
13485;SDS011;6815;59.336;17.998;2024-01-30T05:34:12;18.20;;;9.97;;
13485;SDS011;6815;59.336;17.998;2024-01-30T05:36:38;17.73;;;10.07;;
13485;SDS011;6815;59.336;17.998;2024-01-30T05:39:03;19.97;;;11.03;;
13485;SDS011;6815;59.336;17.998;2024-01-30T05:41:30;18.10;;;10.13;;
13485;SDS011;6815;59.336;17.998;2024-01-30T05:43:55;18.73;;;10.80;;
13485;SDS011;6815;59.336;17.998;2024-01-30T05:46:21;17.03;;;9.93;;
13485;SDS011;6815;59.336;17.998;2024-01-30T05:48:46;19.73;;;10.90;;
13485;SDS011;6815;59.336;17.998;2024-01-30T05:51:12;23.23;;;11.43;;
13485;SDS011;6815;59.336;17.998;2024-01-30T05:53:38;20.73;;;11.80;;
13485;SDS011;6815;59.336;17.998;2024-01-30T05:56:04;23.07;;;12.27;;
13485;SDS011;6815;59.336;17.998;2024-01-30T05:58:30;21.57;;;11.90;;
13485;SDS011;6815;59.336;17.998;2024-01-30T06:00:56;18.20;;;10.23;;
13485;SDS011;6815;59.336;17.998;2024-01-30T06:03:22;22.20;;;11.57;;
13485;SDS011;6815;59.336;17.998;2024-01-30T06:05:48;19.53;;;10.33;;
13485;SDS011;6815;59.336;17.998;2024-01-30T06:08:13;17.33;;;10.00;;
13485;SDS011;6815;59.336;17.998;2024-01-30T06:10:39;19.47;;;10.70;;
13485;SDS011;6815;59.336;17.998;2024-01-30T06:13:05;17.03;;;10.40;;
13485;SDS011;6815;59.336;17.998;2024-01-30T06:15:30;18.87;;;10.60;;
13485;SDS011;6815;59.336;17.998;2024-01-30T06:17:57;16.50;;;9.97;;
13485;SDS011;6815;59.336;17.998;2024-01-30T06:20:23;20.33;;;10.23;;
13485;SDS011;6815;59.336;17.998;2024-01-30T06:22:49;19.90;;;10.87;;
13485;SDS011;6815;59.336;17.998;2024-01-30T06:25:14;16.57;;;10.23;;
13485;SDS011;6815;59.336;17.998;2024-01-30T06:27:41;19.73;;;10.17;;
13485;SDS011;6815;59.336;17.998;2024-01-30T06:30:07;19.43;;;9.63;;
13485;SDS011;6815;59.336;17.998;2024-01-30T06:32:33;19.27;;;9.80;;
13485;SDS011;6815;59.336;17.998;2024-01-30T06:34:59;18.63;;;10.00;;
13485;SDS011;6815;59.336;17.998;2024-01-30T06:37:25;18.47;;;10.03;;
13485;SDS011;6815;59.336;17.998;2024-01-30T06:39:51;18.83;;;9.93;;
13485;SDS011;6815;59.336;17.998;2024-01-30T06:42:17;20.80;;;10.60;;
13485;SDS011;6815;59.336;17.998;2024-01-30T06:44:43;19.50;;;10.70;;
13485;SDS011;6815;59.336;17.998;2024-01-30T06:47:09;19.23;;;10.20;;
13485;SDS011;6815;59.336;17.998;2024-01-30T06:49:34;19.77;;;10.20;;
13485;SDS011;6815;59.336;17.998;2024-01-30T06:52:00;23.10;;;11.90;;
13485;SDS011;6815;59.336;17.998;2024-01-30T06:54:25;20.07;;;10.63;;
13485;SDS011;6815;59.336;17.998;2024-01-30T06:56:51;21.17;;;10.30;;
13485;SDS011;6815;59.336;17.998;2024-01-30T06:59:16;20.37;;;10.40;;
13485;SDS011;6815;59.336;17.998;2024-01-30T07:01:42;21.43;;;10.83;;
13485;SDS011;6815;59.336;17.998;2024-01-30T07:04:07;20.83;;;10.63;;
13485;SDS011;6815;59.336;17.998;2024-01-30T07:06:33;22.00;;;10.83;;
13485;SDS011;6815;59.336;17.998;2024-01-30T07:08:58;22.23;;;10.90;;
13485;SDS011;6815;59.336;17.998;2024-01-30T07:11:24;22.47;;;11.77;;
13485;SDS011;6815;59.336;17.998;2024-01-30T07:13:54;27.40;;;11.80;;
13485;SDS011;6815;59.336;17.998;2024-01-30T07:16:19;19.33;;;9.90;;
13485;SDS011;6815;59.336;17.998;2024-01-30T07:18:45;19.90;;;10.67;;
13485;SDS011;6815;59.336;17.998;2024-01-30T07:21:11;21.10;;;9.97;;
13485;SDS011;6815;59.336;17.998;2024-01-30T07:23:37;21.67;;;9.97;;
13485;SDS011;6815;59.336;17.998;2024-01-30T07:26:04;18.20;;;10.17;;
13485;SDS011;6815;59.336;17.998;2024-01-30T07:28:31;17.23;;;9.83;;
13485;SDS011;6815;59.336;17.998;2024-01-30T07:30:57;16.40;;;9.03;;
13485;SDS011;6815;59.336;17.998;2024-01-30T07:33:22;16.97;;;8.90;;
13485;SDS011;6815;59.336;17.998;2024-01-30T07:35:48;15.90;;;9.07;;
13485;SDS011;6815;59.336;17.998;2024-01-30T07:38:14;19.63;;;10.63;;
13485;SDS011;6815;59.336;17.998;2024-01-30T07:40:39;16.73;;;9.53;;
13485;SDS011;6815;59.336;17.998;2024-01-30T07:43:06;15.83;;;9.43;;
13485;SDS011;6815;59.336;17.998;2024-01-30T07:45:31;18.03;;;9.87;;
13485;SDS011;6815;59.336;17.998;2024-01-30T07:47:58;18.03;;;10.17;;
13485;SDS011;6815;59.336;17.998;2024-01-30T07:50:25;19.63;;;9.83;;
13485;SDS011;6815;59.336;17.998;2024-01-30T07:52:50;15.90;;;8.73;;
13485;SDS011;6815;59.336;17.998;2024-01-30T07:55:19;16.83;;;9.77;;
13485;SDS011;6815;59.336;17.998;2024-01-30T07:57:52;17.03;;;9.27;;
13485;SDS011;6815;59.336;17.998;2024-01-30T08:00:21;15.90;;;8.93;;
13485;SDS011;6815;59.336;17.998;2024-01-30T08:02:47;15.53;;;9.40;;
13485;SDS011;6815;59.336;17.998;2024-01-30T08:05:13;16.40;;;8.63;;
13485;SDS011;6815;59.336;17.998;2024-01-30T08:07:40;16.67;;;9.00;;
13485;SDS011;6815;59.336;17.998;2024-01-30T08:10:07;17.37;;;9.43;;
13485;SDS011;6815;59.336;17.998;2024-01-30T08:12:33;18.43;;;8.77;;
13485;SDS011;6815;59.336;17.998;2024-01-30T08:14:58;18.60;;;9.20;;
13485;SDS011;6815;59.336;17.998;2024-01-30T08:17:24;20.70;;;9.23;;
13485;SDS011;6815;59.336;17.998;2024-01-30T08:19:49;16.00;;;8.00;;
13485;SDS011;6815;59.336;17.998;2024-01-30T08:22:15;17.03;;;9.03;;
13485;SDS011;6815;59.336;17.998;2024-01-30T08:24:41;15.33;;;7.50;;
13485;SDS011;6815;59.336;17.998;2024-01-30T08:27:06;12.77;;;7.67;;
13485;SDS011;6815;59.336;17.998;2024-01-30T08:29:34;18.23;;;8.13;;
13485;SDS011;6815;59.336;17.998;2024-01-30T08:32:00;19.10;;;8.30;;
13485;SDS011;6815;59.336;17.998;2024-01-30T08:34:26;18.60;;;8.33;;
13485;SDS011;6815;59.336;17.998;2024-01-30T08:36:52;16.20;;;7.80;;
13485;SDS011;6815;59.336;17.998;2024-01-30T08:39:17;15.63;;;7.60;;
13485;SDS011;6815;59.336;17.998;2024-01-30T08:41:43;16.30;;;8.33;;
13485;SDS011;6815;59.336;17.998;2024-01-30T08:44:09;16.30;;;8.33;;
13485;SDS011;6815;59.336;17.998;2024-01-30T08:46:36;15.37;;;8.13;;
13485;SDS011;6815;59.336;17.998;2024-01-30T08:49:01;15.07;;;7.67;;
13485;SDS011;6815;59.336;17.998;2024-01-30T08:51:28;17.77;;;8.13;;
13485;SDS011;6815;59.336;17.998;2024-01-30T08:53:53;15.73;;;8.43;;
13485;SDS011;6815;59.336;17.998;2024-01-30T08:56:19;14.57;;;8.03;;
13485;SDS011;6815;59.336;17.998;2024-01-30T08:58:44;18.00;;;8.70;;
13485;SDS011;6815;59.336;17.998;2024-01-30T09:01:10;15.97;;;8.37;;
13485;SDS011;6815;59.336;17.998;2024-01-30T09:03:35;16.10;;;9.13;;
13485;SDS011;6815;59.336;17.998;2024-01-30T09:06:07;17.43;;;8.93;;
13485;SDS011;6815;59.336;17.998;2024-01-30T09:08:33;15.00;;;8.10;;
13485;SDS011;6815;59.336;17.998;2024-01-30T09:10:59;17.87;;;9.00;;
13485;SDS011;6815;59.336;17.998;2024-01-30T09:13:24;18.47;;;8.37;;
13485;SDS011;6815;59.336;17.998;2024-01-30T09:15:50;18.10;;;8.90;;
13485;SDS011;6815;59.336;17.998;2024-01-30T09:18:15;13.80;;;8.40;;
13485;SDS011;6815;59.336;17.998;2024-01-30T09:20:40;19.50;;;8.23;;
13485;SDS011;6815;59.336;17.998;2024-01-30T09:23:06;16.27;;;8.27;;
13485;SDS011;6815;59.336;17.998;2024-01-30T09:25:32;18.97;;;9.53;;
13485;SDS011;6815;59.336;17.998;2024-01-30T09:27:58;15.07;;;7.97;;
13485;SDS011;6815;59.336;17.998;2024-01-30T09:30:24;19.37;;;9.73;;
13485;SDS011;6815;59.336;17.998;2024-01-30T09:32:49;18.03;;;8.60;;
13485;SDS011;6815;59.336;17.998;2024-01-30T09:35:15;18.80;;;8.77;;
13485;SDS011;6815;59.336;17.998;2024-01-30T09:37:40;18.37;;;9.00;;
13485;SDS011;6815;59.336;17.998;2024-01-30T09:40:06;16.13;;;9.13;;
13485;SDS011;6815;59.336;17.998;2024-01-30T09:45:00;18.63;;;9.90;;
13485;SDS011;6815;59.336;17.998;2024-01-30T09:47:28;19.70;;;9.20;;
13485;SDS011;6815;59.336;17.998;2024-01-30T09:50:09;16.87;;;8.77;;
13485;SDS011;6815;59.336;17.998;2024-01-30T09:52:35;20.13;;;8.87;;
13485;SDS011;6815;59.336;17.998;2024-01-30T09:55:01;16.83;;;8.60;;
13485;SDS011;6815;59.336;17.998;2024-01-30T09:57:27;19.87;;;9.17;;
13485;SDS011;6815;59.336;17.998;2024-01-30T09:59:53;17.00;;;8.73;;
13485;SDS011;6815;59.336;17.998;2024-01-30T10:02:22;17.67;;;9.57;;
13485;SDS011;6815;59.336;17.998;2024-01-30T10:04:48;18.03;;;9.57;;
13485;SDS011;6815;59.336;17.998;2024-01-30T10:07:15;20.53;;;10.17;;
13485;SDS011;6815;59.336;17.998;2024-01-30T10:09:41;18.07;;;9.90;;
13485;SDS011;6815;59.336;17.998;2024-01-30T10:12:06;17.93;;;9.53;;
13485;SDS011;6815;59.336;17.998;2024-01-30T10:14:33;18.03;;;9.13;;
13485;SDS011;6815;59.336;17.998;2024-01-30T10:17:03;19.27;;;9.20;;
13485;SDS011;6815;59.336;17.998;2024-01-30T10:19:29;24.23;;;10.63;;
13485;SDS011;6815;59.336;17.998;2024-01-30T10:21:54;18.10;;;9.43;;
13485;SDS011;6815;59.336;17.998;2024-01-30T10:24:23;20.10;;;9.90;;
13485;SDS011;6815;59.336;17.998;2024-01-30T10:26:49;20.27;;;9.67;;
13485;SDS011;6815;59.336;17.998;2024-01-30T10:29:14;22.17;;;10.40;;
13485;SDS011;6815;59.336;17.998;2024-01-30T10:31:40;20.50;;;9.97;;
13485;SDS011;6815;59.336;17.998;2024-01-30T10:34:05;19.07;;;9.57;;
13485;SDS011;6815;59.336;17.998;2024-01-30T10:36:31;20.17;;;9.50;;
13485;SDS011;6815;59.336;17.998;2024-01-30T10:39:05;19.10;;;9.93;;
13485;SDS011;6815;59.336;17.998;2024-01-30T10:41:33;18.63;;;9.93;;
13485;SDS011;6815;59.336;17.998;2024-01-30T10:44:20;17.90;;;9.73;;
13485;SDS011;6815;59.336;17.998;2024-01-30T10:46:59;21.63;;;10.53;;
13485;SDS011;6815;59.336;17.998;2024-01-30T10:49:28;25.23;;;9.97;;
13485;SDS011;6815;59.336;17.998;2024-01-30T10:51:54;19.33;;;9.83;;
13485;SDS011;6815;59.336;17.998;2024-01-30T10:54:20;20.47;;;9.93;;
13485;SDS011;6815;59.336;17.998;2024-01-30T10:56:47;19.57;;;10.17;;
13485;SDS011;6815;59.336;17.998;2024-01-30T10:59:14;18.97;;;10.03;;
13485;SDS011;6815;59.336;17.998;2024-01-30T11:01:40;20.57;;;10.37;;
13485;SDS011;6815;59.336;17.998;2024-01-30T11:04:06;21.40;;;11.27;;
13485;SDS011;6815;59.336;17.998;2024-01-30T11:06:32;25.67;;;11.03;;
13485;SDS011;6815;59.336;17.998;2024-01-30T11:09:09;23.27;;;10.67;;
13485;SDS011;6815;59.336;17.998;2024-01-30T11:11:50;20.17;;;10.30;;
13485;SDS011;6815;59.336;17.998;2024-01-30T11:14:22;21.30;;;10.60;;
13485;SDS011;6815;59.336;17.998;2024-01-30T11:16:49;24.30;;;11.20;;
13485;SDS011;6815;59.336;17.998;2024-01-30T11:19:14;23.57;;;11.27;;
13485;SDS011;6815;59.336;17.998;2024-01-30T11:21:41;20.33;;;10.00;;
13485;SDS011;6815;59.336;17.998;2024-01-30T11:24:07;20.53;;;10.80;;
13485;SDS011;6815;59.336;17.998;2024-01-30T11:26:33;20.63;;;10.53;;
13485;SDS011;6815;59.336;17.998;2024-01-30T11:29:02;23.50;;;10.90;;
13485;SDS011;6815;59.336;17.998;2024-01-30T11:31:29;22.47;;;11.00;;
13485;SDS011;6815;59.336;17.998;2024-01-30T11:33:56;24.53;;;12.00;;
13485;SDS011;6815;59.336;17.998;2024-01-30T11:36:25;22.93;;;10.57;;
13485;SDS011;6815;59.336;17.998;2024-01-30T11:38:54;23.40;;;10.80;;
13485;SDS011;6815;59.336;17.998;2024-01-30T11:41:20;23.67;;;12.13;;
13485;SDS011;6815;59.336;17.998;2024-01-30T11:43:55;24.93;;;11.90;;
13485;SDS011;6815;59.336;17.998;2024-01-30T11:46:24;23.53;;;11.07;;
13485;SDS011;6815;59.336;17.998;2024-01-30T11:48:50;26.80;;;12.13;;
13485;SDS011;6815;59.336;17.998;2024-01-30T11:51:17;25.33;;;12.00;;
13485;SDS011;6815;59.336;17.998;2024-01-30T11:53:44;25.40;;;12.27;;
13485;SDS011;6815;59.336;17.998;2024-01-30T11:56:10;24.07;;;12.87;;
13485;SDS011;6815;59.336;17.998;2024-01-30T11:58:37;23.13;;;12.77;;
13485;SDS011;6815;59.336;17.998;2024-01-30T12:01:02;28.30;;;13.33;;
13485;SDS011;6815;59.336;17.998;2024-01-30T12:03:28;29.63;;;12.37;;
13485;SDS011;6815;59.336;17.998;2024-01-30T12:05:57;30.40;;;12.57;;
13485;SDS011;6815;59.336;17.998;2024-01-30T12:08:23;28.13;;;12.33;;
13485;SDS011;6815;59.336;17.998;2024-01-30T12:10:55;27.27;;;12.33;;
13485;SDS011;6815;59.336;17.998;2024-01-30T12:13:22;26.00;;;11.87;;
13485;SDS011;6815;59.336;17.998;2024-01-30T12:15:47;23.97;;;12.37;;
13485;SDS011;6815;59.336;17.998;2024-01-30T12:18:13;23.20;;;11.83;;
13485;SDS011;6815;59.336;17.998;2024-01-30T12:20:38;26.37;;;12.90;;
13485;SDS011;6815;59.336;17.998;2024-01-30T12:23:05;22.43;;;11.90;;
13485;SDS011;6815;59.336;17.998;2024-01-30T12:25:30;26.23;;;12.30;;
13485;SDS011;6815;59.336;17.998;2024-01-30T12:27:56;26.07;;;12.63;;
13485;SDS011;6815;59.336;17.998;2024-01-30T12:30:22;26.97;;;12.70;;
13485;SDS011;6815;59.336;17.998;2024-01-30T12:32:49;23.23;;;12.00;;
13485;SDS011;6815;59.336;17.998;2024-01-30T12:35:16;24.60;;;12.03;;
13485;SDS011;6815;59.336;17.998;2024-01-30T12:37:44;23.30;;;12.03;;
13485;SDS011;6815;59.336;17.998;2024-01-30T12:40:11;22.60;;;11.60;;
13485;SDS011;6815;59.336;17.998;2024-01-30T12:42:39;24.63;;;12.40;;
13485;SDS011;6815;59.336;17.998;2024-01-30T12:45:08;21.40;;;12.13;;
13485;SDS011;6815;59.336;17.998;2024-01-30T12:47:34;23.43;;;10.90;;
13485;SDS011;6815;59.336;17.998;2024-01-30T12:49:59;25.73;;;12.57;;
13485;SDS011;6815;59.336;17.998;2024-01-30T12:52:25;26.37;;;12.10;;
13485;SDS011;6815;59.336;17.998;2024-01-30T12:54:51;24.93;;;12.60;;
13485;SDS011;6815;59.336;17.998;2024-01-30T12:57:17;25.23;;;12.60;;
13485;SDS011;6815;59.336;17.998;2024-01-30T12:59:43;23.23;;;11.87;;
13485;SDS011;6815;59.336;17.998;2024-01-30T13:02:09;24.47;;;12.67;;
13485;SDS011;6815;59.336;17.998;2024-01-30T13:04:35;23.27;;;12.40;;
13485;SDS011;6815;59.336;17.998;2024-01-30T13:07:01;19.97;;;12.07;;
13485;SDS011;6815;59.336;17.998;2024-01-30T13:09:29;25.40;;;12.23;;
13485;SDS011;6815;59.336;17.998;2024-01-30T13:11:55;21.53;;;11.30;;
13485;SDS011;6815;59.336;17.998;2024-01-30T13:14:21;21.50;;;12.17;;
13485;SDS011;6815;59.336;17.998;2024-01-30T13:16:46;24.87;;;11.83;;
13485;SDS011;6815;59.336;17.998;2024-01-30T13:19:12;23.30;;;12.03;;
13485;SDS011;6815;59.336;17.998;2024-01-30T13:21:37;25.17;;;12.40;;
13485;SDS011;6815;59.336;17.998;2024-01-30T13:24:03;22.87;;;12.47;;
13485;SDS011;6815;59.336;17.998;2024-01-30T13:26:29;22.10;;;12.63;;
13485;SDS011;6815;59.336;17.998;2024-01-30T13:28:56;26.37;;;13.13;;
13485;SDS011;6815;59.336;17.998;2024-01-30T13:31:22;22.63;;;12.33;;
13485;SDS011;6815;59.336;17.998;2024-01-30T13:33:47;24.43;;;12.53;;
13485;SDS011;6815;59.336;17.998;2024-01-30T13:36:14;24.00;;;12.00;;
13485;SDS011;6815;59.336;17.998;2024-01-30T13:38:40;24.07;;;13.07;;
13485;SDS011;6815;59.336;17.998;2024-01-30T13:41:05;25.73;;;12.93;;
13485;SDS011;6815;59.336;17.998;2024-01-30T13:43:31;23.77;;;11.93;;
13485;SDS011;6815;59.336;17.998;2024-01-30T13:45:56;21.90;;;11.17;;
13485;SDS011;6815;59.336;17.998;2024-01-30T13:48:23;23.80;;;12.23;;
13485;SDS011;6815;59.336;17.998;2024-01-30T13:50:48;22.27;;;10.87;;
13485;SDS011;6815;59.336;17.998;2024-01-30T13:53:14;23.57;;;11.87;;
13485;SDS011;6815;59.336;17.998;2024-01-30T13:55:39;19.53;;;11.00;;
13485;SDS011;6815;59.336;17.998;2024-01-30T13:58:06;24.27;;;11.50;;
13485;SDS011;6815;59.336;17.998;2024-01-30T14:00:32;20.87;;;10.63;;
13485;SDS011;6815;59.336;17.998;2024-01-30T14:02:58;20.67;;;11.37;;
13485;SDS011;6815;59.336;17.998;2024-01-30T14:05:24;22.83;;;10.80;;
13485;SDS011;6815;59.336;17.998;2024-01-30T14:07:51;21.10;;;10.60;;
13485;SDS011;6815;59.336;17.998;2024-01-30T14:10:17;18.47;;;10.10;;
13485;SDS011;6815;59.336;17.998;2024-01-30T14:12:44;19.37;;;10.13;;
13485;SDS011;6815;59.336;17.998;2024-01-30T14:15:10;21.70;;;10.63;;
13485;SDS011;6815;59.336;17.998;2024-01-30T14:17:37;20.30;;;10.53;;
13485;SDS011;6815;59.336;17.998;2024-01-30T14:20:03;21.57;;;10.90;;
13485;SDS011;6815;59.336;17.998;2024-01-30T14:22:30;22.00;;;11.40;;